Aérodrome :
LOGIN :

S'inscrire | Disclaimer

   EN    FR    IT 

 










Légende :    VFR   VFR Marginal   IFR   IFR Intensif   IFR Très Intensif
Visi : 
Plafond : 
>= 8 km
>= 3000ft
5 à 8 km
1000 à 3000 ft
1500m à 5 km
500 à 1000 ft
800 à 1500m
200 à 500 ft
< 800m
< 200 ft
Symboles :   Orages  Brouillard  Fortes neiges  Fortes précipitations  Vent > 20 kt
SIGMETs :   Divers  Orages  Givrage  Turbulence  Onde Orograph.  Cendres Volcan.







- Altitude de l'aérodrome : 36 ft
- Code IATA : LTQ
- Voir les cartes d'approche


LFAT - Le Touquet

DERNIER METAR :
  • 181730Z AUTO 27012KT 250V320 9999 SCT025/// SCT052/// BKN066/// ///TCU 09/04 Q1003 TEMPO 28020G30KT BECMG SCT030

METARs EXPIRÉS :
  • 181700Z AUTO 28011KT 230V320 CAVOK 09/05 Q1003 TEMPO 28020G30KT 4000 SHRA BKN020CB
  • 181630Z AUTO 28010KT 240V310 9999 FEW029 SCT072 BKN100 09/05 Q1003 TEMPO 28020G30KT 4000 SHRA BKN020CB
  • 181600Z AUTO 28011KT 250V310 9999 FEW024 BKN029 BKN037 09/05 Q1003 TEMPO 28020G35KT 4000 SHRA BKN020CB
  • 181530Z AUTO 28010KT 250V310 9999 BKN024 BKN029 09/05 Q1003 TEMPO 28020G35KT 4000 SHRA BKN020CB
  • 181500Z AUTO 28010G20KT 250V310 9999 SCT026 SCT031 09/05 Q1003 TEMPO 28020G35KT 4000 SHRA BKN020CB

TAF TAF LFAT
Valide du 18 à 15h jusqu'au 19 à 00h UTC


181400Z 1815/1824 28015KT 9999 SCT030
TEMPO 1815/1818 28020G35KT 4000 SHRA BKN020CB
TEMPO 1818/1824 28020G30KT
ATIS : +33 3 21 06 62 84
Pas de NOTAMs connus pour ce terrain.



MET'MAP, la Météo Aéronautique d'un coup d'oeil ! - Copyright ORBIFLY Décembre 2007 - Disclaimer

ORBIFLY MET'MAP TEAM :

Programmation & Développement : Alexandra Zaïnal
Conception & Développement : Baudouin d'Aumeries
Co-Programmation & Développement : Marc-Olivier Méhu
Soutien technique & logistique : Manuel Goepfert

Contact : metmap@orbifly.com




SOURCES & CREDITS :

   NOAA